Weather at Perth Jandakot Airport

Public forecast

Using degrees Celsius for public forecast. Weather courtesy of forecast.io.

Current aviation weather report (METAR) for Perth Jandakot Airport

Retrieved 2021/06/16 18:30 UTC (15 minutes ago):

YPJT 161830Z AUTO 07003KT 9999 // NCD 08/08 Q1029 RF000/0000

Aviation forecast (TAF) for Perth Jandakot Airport

Forecast is more than 12 hours old.

Retrieved 2021/06/15 12:00 UTC (1 day ago):

TAF YPJT 151110Z 1512/1606 18008KT 9999 SCT035 FM151500 VRB03KT 9999 FEW035 FM151800 05003KT 9999 FEW035 FM160400 21005KT CAVOK PROB30 1514/1601 0400 FG BKN001